Time;durP1;ratioP1;P1;durP2;ratioP2;P2;SDS_P1;SDS_P2;PMS_P1;PMS_P2;Temp;Humidity;BMP_temperature;BMP_pressure;BME280_temperature;BME280_humidity;BME280_pressure;Samples;Min_cycle;Max_cycle;Signal;HPM_P1;HPM_P2
2023/04/14 00:00:50;;;;;;;6.13;3.85;;;;;;;12.97;71.10;99711.78;5091464;28;20115;-75
2023/04/14 00:03:16;;;;;;;5.47;3.83;;;;;;;12.95;71.35;99704.00;5091692;28;20048;-71
2023/04/14 00:05:42;;;;;;;5.70;4.10;;;;;;;13.05;71.72;99723.16;5091565;28;20074;-74
2023/04/14 00:08:07;;;;;;;5.65;3.72;;;;;;;13.08;71.58;99722.31;5091742;28;20454;-76
2023/04/14 00:10:32;;;;;;;5.65;4.18;;;;;;;13.07;71.63;99721.47;5091957;28;20456;-75
2023/04/14 00:13:00;;;;;;;7.28;4.13;;;;;;;13.02;71.33;99720.53;5084649;28;20036;-74
2023/04/14 00:15:28;;;;;;;6.25;3.80;;;;;;;12.95;71.75;99706.59;5062091;28;20067;-74
2023/04/14 00:17:53;;;;;;;6.07;4.32;;;;;;;12.97;71.87;99719.56;5090516;28;20032;-72
2023/04/14 00:20:19;;;;;;;7.00;4.13;;;;;;;13.03;71.80;99721.38;5091383;28;20493;-74
2023/04/14 00:22:44;;;;;;;5.70;4.18;;;;;;;13.00;71.88;99722.22;5091145;28;20110;-72
2023/04/14 00:25:10;;;;;;;5.85;4.10;;;;;;;13.03;71.87;99723.97;5091158;28;20051;-75
2023/04/14 00:27:35;;;;;;;9.45;4.32;;;;;;;13.01;72.00;99723.97;5091241;28;20116;-71
2023/04/14 00:30:01;;;;;;;8.32;5.15;;;;;;;12.56;72.48;99688.72;5091439;28;20051;-75
2023/04/14 00:32:26;;;;;;;6.45;4.13;;;;;;;12.39;74.77;99730.72;5091416;28;20453;-75
2023/04/14 00:34:52;;;;;;;6.00;4.38;;;;;;;12.29;74.87;99731.41;5091219;28;20055;-72
2023/04/14 00:37:17;;;;;;;7.50;4.35;;;;;;;12.27;75.42;99731.41;5094977;28;20028;-74
2023/04/14 00:39:43;;;;;;;8.85;4.80;;;;;;;12.13;76.07;99732.84;5090488;28;20039;-72
2023/04/14 00:42:08;;;;;;;7.85;4.47;;;;;;;12.13;76.18;99740.59;5091026;28;20455;-73
2023/04/14 00:44:33;;;;;;;8.25;4.88;;;;;;;12.08;76.60;99745.69;5090717;28;20044;-76
2023/04/14 00:47:00;;;;;;;6.82;4.65;;;;;;;11.62;76.90;99672.34;5091226;28;20511;-72
2023/04/14 00:49:27;;;;;;;6.45;4.10;;;;;;;11.81;76.68;99689.09;5090469;28;20036;-75
2023/04/14 00:51:53;;;;;;;7.35;4.32;;;;;;;12.14;76.81;99743.22;5091040;28;20054;-71
2023/04/14 00:54:19;;;;;;;7.38;4.72;;;;;;;12.01;76.53;99702.44;5090895;28;20036;-75
2023/04/14 00:56:46;;;;;;;10.65;4.40;;;;;;;12.14;76.56;99719.94;5090276;28;20039;-73
2023/04/14 00:59:12;;;;;;;7.35;4.45;;;;;;;12.07;76.74;99710.31;5054709;28;20042;-75
2023/04/14 01:01:39;;;;;;;9.75;3.72;;;;;;;11.82;77.40;99699.50;5090852;28;20020;-72
2023/04/14 01:04:05;;;;;;;9.27;5.13;;;;;;;11.82;78.15;99735.69;5089177;28;20036;-74
2023/04/14 01:06:31;;;;;;;8.35;4.72;;;;;;;11.74;78.93;99723.41;5090576;28;20527;-74
2023/04/14 01:08:58;;;;;;;9.45;5.15;;;;;;;11.65;79.56;99727.59;5071001;28;20043;-71
2023/04/14 01:11:43;;;;;;;8.55;4.65;;;;;;;11.47;80.77;99712.53;5090249;28;20059;-75
2023/04/14 01:14:27;;;;;;;9.60;4.40;;;;;;;11.37;81.62;99741.63;5071858;28;20120;-72
2023/04/14 01:16:57;;;;;;;10.25;4.95;;;;;;;11.14;82.22;99734.25;5090172;28;20047;-76
2023/04/14 01:19:41;;;;;;;8.35;4.65;;;;;;;11.12;83.04;99746.25;5090108;28;20460;-77
2023/04/14 01:22:11;;;;;;;8.15;4.65;;;;;;;10.92;84.08;99750.94;5090258;28;20062;-75
2023/04/14 01:25:08;;;;;;;7.65;4.65;;;;;;;10.51;86.61;99740.47;5090465;28;20040;-74
2023/04/14 01:27:45;;;;;;;10.10;5.38;;;;;;;10.61;86.34;99741.59;5090106;28;20059;-74
2023/04/14 01:30:28;;;;;;;10.50;4.85;;;;;;;10.59;86.43;99740.66;5089897;28;20040;-74
2023/04/14 01:32:57;;;;;;;12.38;5.25;;;;;;;10.49;87.50;99739.56;5090259;28;20048;-71
2023/04/14 01:35:35;;;;;;;11.57;5.80;;;;;;;10.30;88.51;99743.34;5089930;28;20107;-72
2023/04/14 01:38:06;;;;;;;11.32;4.75;;;;;;;10.15;89.04;99729.19;5090002;28;20043;-73
2023/04/14 01:40:33;;;;;;;12.18;5.05;;;;;;;10.26;88.32;99742.38;5089571;28;20482;-76
2023/04/14 01:43:02;;;;;;;12.23;5.72;;;;;;;9.97;88.53;99714.13;5067111;28;20048;-72
2023/04/14 01:45:38;;;;;;;;;;;;;;;10.08;89.09;99750.50;5067153;28;20047;-77
2023/04/14 01:48:05;;;;;;;8.73;4.78;;;;;;;9.91;90.13;99736.28;5059157;28;19912;-75
2023/04/14 01:50:34;;;;;;;10.70;5.65;;;;;;;9.91;90.65;99747.47;5056053;28;20041;-73
2023/04/14 01:53:03;;;;;;;11.15;5.72;;;;;;;9.69;90.98;99700.47;5055869;28;20033;-75
2023/04/14 01:55:31;;;;;;;8.90;4.88;;;;;;;10.10;90.88;99743.66;5047672;28;20033;-71
2023/04/14 01:57:58;;;;;;;7.97;5.32;;;;;;;10.27;90.03;99745.81;5047930;28;20041;-72
2023/04/14 02:00:24;;;;;;;8.98;4.72;;;;;;;10.39;90.30;99741.00;5047762;28;20621;-71
2023/04/14 02:02:52;;;;;;;13.50;5.15;;;;;;;10.38;91.06;99736.72;5047177;28;20041;-78
2023/04/14 02:05:18;;;;;;;10.48;4.95;;;;;;;10.32;91.32;99716.75;5046970;28;20052;-77
2023/04/14 02:07:46;;;;;;;8.32;5.25;;;;;;;10.57;92.16;99735.47;5047291;28;20053;-72
2023/04/14 02:10:13;;;;;;;7.93;5.13;;;;;;;10.67;91.43;99734.00;5047550;28;20048;-76
2023/04/14 02:12:40;;;;;;;8.85;5.30;;;;;;;10.68;90.75;99728.00;5047662;28;20033;-74
2023/04/14 02:15:12;;;;;;;8.00;4.88;;;;;;;10.52;91.86;99722.44;5070973;28;20047;-74
2023/04/14 02:17:39;;;;;;;10.32;5.65;;;;;;;10.46;92.19;99701.63;5073965;28;20032;-71
2023/04/14 02:20:08;;;;;;;9.45;5.35;;;;;;;10.67;90.75;99721.94;5073715;28;20029;-75
2023/04/14 02:22:34;;;;;;;8.65;4.68;;;;;;;10.63;90.64;99719.25;5073882;28;20043;-76
2023/04/14 02:25:00;;;;;;;10.18;5.22;;;;;;;10.55;90.26;99713.03;5073891;28;20037;-74
2023/04/14 02:27:32;;;;;;;10.30;5.45;;;;;;;10.46;90.40;99708.53;5073556;28;20037;-74
2023/04/14 02:30:01;;;;;;;10.70;4.93;;;;;;;10.40;90.38;99724.72;5073440;28;20418;-74
2023/04/14 02:32:29;;;;;;;8.35;5.20;;;;;;;10.19;90.63;99723.31;5073648;28;20052;-71
2023/04/14 02:35:10;;;;;;;8.50;4.97;;;;;;;10.10;91.55;99737.66;5073569;28;20037;-76
2023/04/14 02:37:40;;;;;;;13.80;5.10;;;;;;;9.98;92.52;99738.19;5073507;28;20037;-71
2023/04/14 02:40:14;;;;;;;;;;;;;;;9.97;92.98;99737.31;5074093;28;20028;-72
2023/04/14 02:42:43;;;;;;;11.45;5.70;;;;;;;9.81;93.18;99741.16;5073649;28;19912;-74
2023/04/14 02:45:13;;;;;;;12.93;6.00;;;;;;;9.59;95.00;99723.34;5073108;28;20033;-71
2023/04/14 02:47:43;;;;;;;12.88;5.40;;;;;;;9.36;97.66;99741.59;5073280;28;20110;-71
2023/04/14 02:50:12;;;;;;;8.40;5.30;;;;;;;9.29;98.77;99737.06;5073301;28;20036;-74
2023/04/14 02:52:39;;;;;;;8.38;5.40;;;;;;;9.21;99.30;99737.72;5073690;28;20499;-74
2023/04/14 02:55:06;;;;;;;12.75;5.85;;;;;;;8.93;99.18;99688.78;5073337;28;20437;-72
2023/04/14 02:57:32;;;;;;;8.80;5.82;;;;;;;9.16;99.24;99740.97;5073047;28;20043;-72
2023/04/14 02:59:59;;;;;;;9.45;5.63;;;;;;;9.22;98.88;99747.19;5072944;28;20111;-71
2023/04/14 03:02:25;;;;;;;14.80;5.30;;;;;;;9.22;98.69;99751.44;5054125;28;20062;-75
2023/04/14 03:04:52;;;;;;;10.85;4.95;;;;;;;8.98;98.39;99707.81;5073185;28;20036;-72
2023/04/14 03:07:20;;;;;;;9.95;5.55;;;;;;;9.14;98.99;99748.66;5072840;28;20064;-75
2023/04/14 03:09:49;;;;;;;11.05;5.88;;;;;;;9.00;98.39;99721.63;5073082;28;20051;-75
2023/04/14 03:12:16;;;;;;;12.23;5.43;;;;;;;9.01;98.33;99716.50;5072917;28;20028;-78
2023/04/14 03:14:43;;;;;;;12.40;6.22;;;;;;;9.02;97.90;99738.84;5073016;28;20266;-73
2023/04/14 03:17:10;;;;;;;13.32;8.73;;;;;;;8.89;98.20;99747.88;5072911;28;20506;-75
2023/04/14 03:19:39;;;;;;;12.77;7.07;;;;;;;8.72;99.36;99749.91;5072793;28;20071;-71
2023/04/14 03:22:07;;;;;;;11.27;7.75;;;;;;;8.74;99.80;99747.38;5072352;28;20494;-78
2023/04/14 03:24:33;;;;;;;12.77;6.70;;;;;;;8.66;100.00;99748.81;5072794;28;20037;-71
2023/04/14 03:27:05;;;;;;;13.25;5.78;;;;;;;8.48;100.00;99734.53;5071686;28;20089;-77
2023/04/14 03:29:45;;;;;;;10.60;6.00;;;;;;;8.53;100.00;99742.41;5072606;28;20028;-72
2023/04/14 03:32:12;;;;;;;;;;;;;;;8.57;100.00;99751.97;5073112;28;20048;-71
2023/04/14 03:34:41;;;;;;;10.45;6.60;;;;;;;8.54;100.00;99750.16;5072304;28;19963;-75
2023/04/14 03:37:08;;;;;;;12.18;6.45;;;;;;;8.38;100.00;99730.72;5072305;28;20090;-75
2023/04/14 03:39:37;;;;;;;11.25;5.90;;;;;;;8.22;100.00;99734.50;5072370;28;20066;-78
2023/04/14 03:42:06;;;;;;;12.32;5.95;;;;;;;8.20;100.00;99735.25;5072618;28;20039;-75
2023/04/14 03:44:35;;;;;;;13.57;5.82;;;;;;;8.19;100.00;99738.66;5072319;28;20453;-79
2023/04/14 03:47:02;;;;;;;12.77;5.88;;;;;;;8.17;100.00;99735.16;5072264;28;20082;-71
2023/04/14 03:49:32;;;;;;;12.32;5.95;;;;;;;8.30;100.00;99745.03;5071988;28;20036;-75
2023/04/14 03:52:04;;;;;;;10.23;6.35;;;;;;;8.42;100.00;99747.16;5071577;28;20036;-72
2023/04/14 03:54:31;;;;;;;8.82;5.38;;;;;;;8.33;100.00;99742.56;5059672;28;20627;-72
2023/04/14 03:56:58;;;;;;;12.90;5.55;;;;;;;7.87;100.00;99679.28;5084591;28;20044;-75
2023/04/14 03:59:26;;;;;;;10.70;5.72;;;;;;;8.38;100.00;99758.16;5079513;28;20067;-74
2023/04/14 04:01:54;;;;;;;12.43;6.57;;;;;;;8.43;100.00;99756.63;5087808;28;20032;-73
2023/04/14 04:04:22;;;;;;;12.68;6.03;;;;;;;8.53;100.00;99762.97;5091807;28;20044;-73
2023/04/14 04:06:49;;;;;;;12.50;6.38;;;;;;;8.57;100.00;99764.81;5092288;28;20111;-73
2023/04/14 04:09:16;;;;;;;14.90;7.55;;;;;;;8.30;100.00;99721.00;5092233;28;20039;-72
2023/04/14 04:11:44;;;;;;;12.05;6.03;;;;;;;8.50;100.00;99763.75;5092317;28;20091;-74
2023/04/14 04:14:11;;;;;;;10.23;6.05;;;;;;;8.30;100.00;99718.44;5092198;28;20043;-77
2023/04/14 04:16:40;;;;;;;11.45;5.28;;;;;;;8.58;100.00;99751.16;5091035;28;20040;-74
2023/04/14 04:19:06;;;;;;;11.93;6.47;;;;;;;8.48;100.00;99760.25;5064689;28;20067;-73
2023/04/14 04:21:41;;;;;;;11.38;5.60;;;;;;;8.42;100.00;99772.88;5082952;28;20267;-73
2023/04/14 04:24:07;;;;;;;8.13;5.78;;;;;;;8.25;100.00;99770.59;5074304;28;20411;-74
2023/04/14 04:26:34;;;;;;;9.50;6.07;;;;;;;8.12;100.00;99770.13;5071432;28;20044;-72
2023/04/14 04:29:02;;;;;;;9.50;5.95;;;;;;;7.95;100.00;99744.69;5071039;28;20040;-76
2023/04/14 04:31:28;;;;;;;11.05;6.28;;;;;;;8.14;100.00;99771.03;5071145;28;20064;-71
2023/04/14 04:33:56;;;;;;;10.23;6.82;;;;;;;8.26;100.00;99769.78;5053298;28;20036;-74
2023/04/14 04:36:22;;;;;;;12.43;6.95;;;;;;;8.22;100.00;99756.75;5071578;28;20052;-75
2023/04/14 04:38:49;;;;;;;15.55;6.55;;;;;;;8.30;100.00;99768.19;5071237;28;20039;-74
2023/04/14 04:41:26;;;;;;;9.93;6.25;;;;;;;8.29;100.00;99765.53;5071582;28;20101;-76
2023/04/14 04:43:51;;;;;;;10.13;6.10;;;;;;;8.25;100.00;99778.31;5070958;28;20303;-75
2023/04/14 04:46:38;;;;;;;11.40;6.03;;;;;;;8.12;100.00;99778.69;5071435;28;20048;-74
2023/04/14 04:49:04;;;;;;;11.30;5.90;;;;;;;7.98;100.00;99767.91;5071326;28;20478;-71
2023/04/14 04:51:30;;;;;;;10.52;6.78;;;;;;;8.02;100.00;99774.91;5071196;28;20041;-70
2023/04/14 04:53:55;;;;;;;11.48;5.97;;;;;;;8.07;100.00;99780.22;5053167;28;20036;-74
2023/04/14 04:56:21;;;;;;;10.43;6.55;;;;;;;8.09;100.00;99779.47;5071309;28;20067;-75
2023/04/14 04:58:47;;;;;;;8.68;6.30;;;;;;;8.12;100.00;99770.97;5070984;28;20040;-72
2023/04/14 05:01:14;;;;;;;9.85;6.63;;;;;;;8.19;100.00;99767.81;5070767;28;20147;-76
2023/04/14 05:03:40;;;;;;;12.25;6.88;;;;;;;8.13;100.00;99749.59;5070827;28;20090;-77
2023/04/14 05:06:06;;;;;;;11.57;6.57;;;;;;;8.20;100.00;99761.84;5071457;28;20033;-71
2023/04/14 05:08:31;;;;;;;14.05;6.40;;;;;;;8.29;100.00;99769.00;5053082;28;20028;-72
2023/04/14 05:10:57;;;;;;;11.77;7.30;;;;;;;8.30;100.00;99768.19;5070838;28;20478;-71
2023/04/14 05:13:42;;;;;;;12.52;7.47;;;;;;;8.46;100.00;99767.06;5110336;28;20494;-73
2023/04/14 05:16:10;;;;;;;12.35;7.05;;;;;;;8.57;100.00;99763.16;5068159;28;20036;-71
2023/04/14 05:18:35;;;;;;;16.27;7.05;;;;;;;8.67;100.00;99772.06;5068144;28;20157;-74
2023/04/14 05:21:05;;;;;;;12.85;7.15;;;;;;;8.67;100.00;99756.63;5068267;28;20498;-74
2023/04/14 05:23:36;;;;;;;15.02;7.15;;;;;;;8.83;100.00;99780.28;5068081;28;20044;-74
2023/04/14 05:26:03;;;;;;;16.35;8.88;;;;;;;8.88;100.00;99781.28;5068050;28;20098;-76
2023/04/14 05:28:28;;;;;;;17.60;9.80;;;;;;;8.94;100.00;99760.91;5068387;28;20461;-71
2023/04/14 05:30:54;;;;;;;13.00;9.35;;;;;;;9.10;100.00;99772.56;5068029;28;20061;-73
2023/04/14 05:33:20;;;;;;;15.02;7.10;;;;;;;9.21;100.00;99766.03;5067806;28;20041;-70
2023/04/14 05:35:46;;;;;;;12.40;7.25;;;;;;;8.97;100.00;99706.06;5067913;28;20048;-73
2023/04/14 05:38:12;;;;;;;12.90;7.28;;;;;;;9.44;100.00;99755.56;5067961;28;20037;-74
2023/04/14 05:40:38;;;;;;;15.63;7.28;;;;;;;9.54;100.00;99757.59;5067926;28;20036;-73
2023/04/14 05:43:04;;;;;;;15.27;7.68;;;;;;;9.66;100.00;99745.91;5069192;28;20040;-73
2023/04/14 05:45:30;;;;;;;11.57;7.55;;;;;;;9.80;100.00;99743.72;5076479;28;20040;-70
2023/04/14 05:47:55;;;;;;;16.67;8.00;;;;;;;9.66;100.00;99700.38;5112524;28;20074;-74
2023/04/14 05:50:23;;;;;;;12.13;7.15;;;;;;;10.00;100.00;99744.25;5110779;28;20036;-73
2023/04/14 05:52:50;;;;;;;12.07;8.10;;;;;;;10.16;100.00;99746.41;5111160;28;20055;-73
2023/04/14 05:55:16;;;;;;;13.73;7.45;;;;;;;10.34;100.00;99747.75;5110972;28;20048;-70
2023/04/14 05:57:42;;;;;;;16.98;8.13;;;;;;;10.48;100.00;99750.69;5111176;28;20040;-75
2023/04/14 06:00:08;;;;;;;14.48;7.88;;;;;;;10.71;100.00;99745.28;5111075;28;20031;-73
2023/04/14 06:02:34;;;;;;;14.20;8.18;;;;;;;10.72;100.00;99722.06;5110969;28;20084;-76
2023/04/14 06:05:00;;;;;;;14.38;7.65;;;;;;;11.04;100.00;99727.13;5110813;28;20043;-76
2023/04/14 06:07:26;;;;;;;12.60;7.43;;;;;;;11.22;100.00;99729.25;5110957;28;20184;-72
2023/04/14 06:09:51;;;;;;;17.83;8.02;;;;;;;11.26;100.00;99717.25;5070253;28;20126;-70
2023/04/14 06:12:17;;;;;;;12.30;7.57;;;;;;;11.60;100.00;99730.91;5111172;28;20039;-73
2023/04/14 06:14:42;;;;;;;12.82;7.03;;;;;;;11.87;100.00;99735.75;5110988;28;20088;-70
2023/04/14 06:17:08;;;;;;;15.35;7.57;;;;;;;12.07;100.00;99741.34;5110634;28;20482;-74
2023/04/14 06:19:33;;;;;;;10.43;7.13;;;;;;;12.26;100.00;99740.00;5110475;28;20512;-74
2023/04/14 06:21:58;;;;;;;12.50;7.20;;;;;;;12.38;100.00;99728.97;5110499;28;20432;-74
2023/04/14 06:24:24;;;;;;;15.63;8.20;;;;;;;12.57;100.00;99731.88;5110551;28;20081;-74
2023/04/14 06:26:49;;;;;;;13.52;7.43;;;;;;;12.65;100.00;99737.19;5110813;28;20444;-74
2023/04/14 06:29:15;;;;;;;14.02;7.88;;;;;;;12.71;100.00;99725.22;5110475;28;20089;-76
2023/04/14 06:31:40;;;;;;;18.00;7.90;;;;;;;12.78;100.00;99719.31;5110512;28;20137;-71
2023/04/14 06:34:06;;;;;;;18.75;9.23;;;;;;;12.88;100.00;99728.06;5110563;28;20028;-73
2023/04/14 06:36:31;;;;;;;13.48;7.60;;;;;;;12.77;100.00;99688.19;5110814;28;20123;-72
2023/04/14 06:38:57;;;;;;;16.17;8.75;;;;;;;13.12;100.00;99721.50;5110451;28;20039;-74
2023/04/14 06:41:24;;;;;;;11.68;8.07;;;;;;;13.09;100.00;99674.84;5110645;28;20043;-74
2023/04/14 06:43:50;;;;;;;14.20;7.85;;;;;;;13.43;100.00;99709.91;5110561;28;20073;-75
2023/04/14 06:46:16;;;;;;;12.70;7.15;;;;;;;13.64;100.00;99710.16;5110371;28;20027;-73
2023/04/14 06:48:42;;;;;;;13.45;7.80;;;;;;;13.84;100.00;99713.81;5110385;28;20092;-72
2023/04/14 06:51:11;;;;;;;12.38;7.07;;;;;;;14.14;100.00;99716.75;5110579;28;20024;-70
2023/04/14 06:53:37;;;;;;;17.13;7.97;;;;;;;14.74;100.00;99719.06;5110665;28;20032;-71
2023/04/14 06:56:04;;;;;;;15.63;7.38;;;;;;;15.16;100.00;99721.06;5110410;28;20262;-69
2023/04/14 06:58:30;;;;;;;11.68;7.15;;;;;;;15.39;100.00;99709.06;5110281;28;20469;-74
2023/04/14 07:00:57;;;;;;;11.23;6.70;;;;;;;15.63;98.06;99710.91;5109802;28;20071;-70
2023/04/14 07:03:23;;;;;;;14.57;7.18;;;;;;;15.80;97.89;99709.25;5113486;28;20374;-72
2023/04/14 07:05:49;;;;;;;9.80;6.80;;;;;;;15.80;97.33;99679.72;5113741;28;20043;-76
2023/04/14 07:08:15;;;;;;;9.77;6.55;;;;;;;16.18;95.97;99710.22;5113956;28;20036;-73
2023/04/14 07:10:40;;;;;;;12.77;6.75;;;;;;;16.28;93.75;99696.34;5113936;28;20079;-74
2023/04/14 07:13:06;;;;;;;12.07;7.30;;;;;;;16.36;94.38;99692.88;5113643;28;20116;-72
2023/04/14 07:15:31;;;;;;;10.13;6.72;;;;;;;16.55;94.10;99691.16;5113982;28;20148;-70
2023/04/14 07:17:57;;;;;;;9.98;6.38;;;;;;;16.59;92.86;99685.94;5113532;28;20462;-73
2023/04/14 07:20:22;;;;;;;11.02;6.78;;;;;;;16.74;93.64;99689.44;5113751;28;20028;-73
2023/04/14 07:22:47;;;;;;;12.20;7.20;;;;;;;16.88;92.89;99687.66;5113755;28;20046;-74
2023/04/14 07:25:13;;;;;;;11.20;7.05;;;;;;;16.81;92.16;99659.88;5113829;28;20027;-73
2023/04/14 07:27:38;;;;;;;12.20;5.75;;;;;;;17.11;91.17;99673.75;5113702;28;20042;-73
2023/04/14 07:30:04;;;;;;;12.50;6.55;;;;;;;17.18;89.84;99687.63;5113337;28;20028;-73
2023/04/14 07:32:30;;;;;;;11.05;6.90;;;;;;;17.14;89.37;99681.56;5094659;28;20421;-70
2023/04/14 07:34:56;;;;;;;12.02;7.03;;;;;;;17.17;90.62;99681.56;5113337;28;20049;-73
2023/04/14 07:37:22;;;;;;;17.42;11.23;;;;;;;17.01;90.85;99652.06;5113634;28;20036;-74
2023/04/14 07:39:47;;;;;;;13.15;7.15;;;;;;;17.24;91.81;99679.81;5113358;28;20050;-72
2023/04/14 07:42:13;;;;;;;12.50;6.93;;;;;;;17.34;91.02;99671.06;5113439;28;20036;-73
2023/04/14 07:44:38;;;;;;;8.82;6.18;;;;;;;17.46;90.53;99670.16;5112120;28;20024;-72
2023/04/14 07:47:04;;;;;;;15.55;7.35;;;;;;;17.68;88.59;99678.72;5092343;28;20032;-72
2023/04/14 07:49:30;;;;;;;14.40;6.43;;;;;;;17.76;89.87;99673.50;5092813;28;20029;-74
2023/04/14 07:51:56;;;;;;;12.25;6.65;;;;;;;17.83;89.92;99664.75;5085895;28;20051;-69
2023/04/14 07:54:22;;;;;;;17.90;5.70;;;;;;;18.06;85.61;99674.22;5073322;28;20039;-73
2023/04/14 07:56:47;;;;;;;8.93;4.70;;;;;;;18.12;85.11;99658.50;5092483;28;20097;-73
2023/04/14 07:59:13;;;;;;;13.70;5.97;;;;;;;18.33;85.77;99661.81;5092155;28;20501;-73
2023/04/14 08:01:39;;;;;;;11.23;5.70;;;;;;;18.47;84.33;99657.38;5092660;28;20497;-73
2023/04/14 08:04:04;;;;;;;16.48;5.90;;;;;;;18.43;81.99;99648.69;5092394;28;20028;-70
2023/04/14 08:06:30;;;;;;;10.50;5.35;;;;;;;18.23;83.01;99608.78;5092191;28;20453;-74
2023/04/14 08:08:55;;;;;;;9.65;4.55;;;;;;;18.35;83.08;99671.38;5092138;28;20119;-74
2023/04/14 08:11:21;;;;;;;11.70;5.82;;;;;;;18.09;83.07;99633.28;5077826;28;20028;-74
2023/04/14 08:13:48;;;;;;;9.52;5.20;;;;;;;17.95;84.54;99627.28;5071378;28;20041;-70
2023/04/14 08:16:14;;;;;;;12.00;5.82;;;;;;;18.19;84.04;99667.16;5071721;28;20035;-74
2023/04/14 08:18:41;;;;;;;12.43;6.25;;;;;;;17.73;83.94;99632.63;5071949;28;20127;-71
2023/04/14 08:21:06;;;;;;;13.35;5.82;;;;;;;17.88;84.34;99688.22;5071879;28;20089;-71
2023/04/14 08:23:32;;;;;;;12.65;5.88;;;;;;;17.90;84.70;99687.31;5071735;28;20041;-75
2023/04/14 08:25:58;;;;;;;16.05;5.43;;;;;;;17.93;85.37;99691.66;5071496;28;20035;-73
2023/04/14 08:28:23;;;;;;;10.75;5.43;;;;;;;17.74;84.59;99670.88;5082285;28;20032;-70
2023/04/14 08:30:49;;;;;;;14.13;5.40;;;;;;;17.61;84.71;99641.38;5071428;28;20051;-73
2023/04/14 08:33:14;;;;;;;13.73;5.80;;;;;;;17.79;85.19;99682.19;5071708;28;20607;-73
2023/04/14 08:35:40;;;;;;;12.45;6.00;;;;;;;17.80;86.40;99677.81;5071516;28;20043;-72
2023/04/14 08:38:05;;;;;;;11.40;6.15;;;;;;;17.82;86.73;99663.03;5070189;28;20063;-74
2023/04/14 08:40:38;;;;;;;15.57;6.20;;;;;;;17.73;87.01;99645.66;5071465;28;20090;-70
2023/04/14 08:43:05;;;;;;;17.02;6.22;;;;;;;17.88;85.28;99673.44;5071171;28;20127;-70
2023/04/14 08:45:32;;;;;;;12.32;5.38;;;;;;;17.84;84.85;99681.28;5071213;28;20047;-75
2023/04/14 08:47:59;;;;;;;11.45;5.63;;;;;;;17.83;84.64;99675.22;5071229;28;20456;-77
2023/04/14 08:50:30;;;;;;;11.93;4.88;;;;;;;17.94;84.45;99667.31;5071518;28;20422;-73
2023/04/14 08:53:00;;;;;;;13.30;5.70;;;;;;;18.11;83.03;99665.47;5071177;28;20044;-73
2023/04/14 08:55:26;;;;;;;11.95;5.70;;;;;;;18.21;83.82;99644.50;5048008;28;20076;-73
2023/04/14 08:57:53;;;;;;;11.48;4.85;;;;;;;18.38;80.94;99654.81;5048630;28;20384;-71
2023/04/14 09:00:19;;;;;;;14.40;4.97;;;;;;;18.32;82.48;99670.53;5030848;28;20498;-73
2023/04/14 09:02:45;;;;;;;14.40;5.40;;;;;;;18.38;81.94;99660.03;5048434;28;20064;-73
2023/04/14 09:05:12;;;;;;;14.32;5.50;;;;;;;18.34;82.57;99664.41;5048335;28;20175;-70
2023/04/14 09:07:37;;;;;;;11.77;4.60;;;;;;;18.19;82.72;99657.56;5048293;28;20032;-74
2023/04/14 09:10:03;;;;;;;10.55;5.07;;;;;;;18.08;81.77;99662.88;5048064;28;20045;-71
2023/04/14 09:12:29;;;;;;;10.88;5.15;;;;;;;18.09;82.93;99674.19;5047896;28;20102;-73
2023/04/14 09:14:57;;;;;;;12.93;5.30;;;;;;;18.05;82.23;99662.03;5048193;28;20534;-74
2023/04/14 09:17:25;;;;;;;9.90;5.07;;;;;;;18.06;82.40;99664.63;5048453;28;20041;-71
2023/04/14 09:19:51;;;;;;;10.25;5.07;;;;;;;18.16;83.86;99677.66;5031453;28;20056;-72
2023/04/14 09:22:17;;;;;;;11.02;6.13;;;;;;;18.12;82.34;99687.25;5048200;28;20113;-72
2023/04/14 09:24:43;;;;;;;9.55;4.68;;;;;;;18.07;82.84;99691.63;5079628;28;20040;-73
2023/04/14 09:27:08;;;;;;;13.20;5.38;;;;;;;18.12;82.32;99695.09;5090144;28;20050;-73
2023/04/14 09:29:36;;;;;;;16.17;6.45;;;;;;;18.11;82.75;99696.81;5091048;28;20054;-73
2023/04/14 09:32:03;;;;;;;11.77;4.88;;;;;;;17.75;81.48;99666.53;5090874;28;20478;-75
2023/04/14 09:34:29;;;;;;;15.13;5.28;;;;;;;18.01;82.42;99700.38;5090965;28;20032;-74
2023/04/14 09:37:09;;;;;;;16.17;5.90;;;;;;;17.89;83.08;99706.47;5092114;28;20035;-73
2023/04/14 09:39:45;;;;;;;12.50;5.63;;;;;;;17.90;82.17;99696.91;5100117;28;20032;-73
2023/04/14 09:42:12;;;;;;;8.00;4.25;;;;;;;17.55;82.65;99643.16;5096688;28;20036;-73
2023/04/14 09:44:57;;;;;;;9.38;5.22;;;;;;;17.84;83.85;99703.03;5090830;28;20028;-74
2023/04/14 09:47:24;;;;;;;14.13;5.40;;;;;;;17.71;85.32;99683.09;5091398;28;20032;-74
2023/04/14 09:49:58;;;;;;;11.38;5.55;;;;;;;17.80;84.89;99690.88;5090601;28;20035;-74
2023/04/14 09:52:43;;;;;;;12.73;5.72;;;;;;;17.70;86.06;99689.19;5090714;28;20039;-71
2023/04/14 09:55:14;;;;;;;10.35;4.72;;;;;;;17.67;85.18;99699.63;5090568;28;20054;-71
2023/04/14 09:57:50;;;;;;;10.82;4.78;;;;;;;17.34;84.72;99658.00;5090834;28;20125;-73
2023/04/14 10:00:16;;;;;;;10.85;4.40;;;;;;;17.54;85.63;99699.69;5089918;28;20449;-73
2023/04/14 10:02:59;;;;;;;13.27;5.47;;;;;;;17.57;86.67;99702.28;5089278;28;20052;-70
2023/04/14 10:05:26;;;;;;;14.10;4.72;;;;;;;17.42;86.21;99700.63;5083412;28;20040;-74
2023/04/14 10:07:52;;;;;;;15.05;5.43;;;;;;;17.50;86.51;99700.56;5080726;28;20028;-75
2023/04/14 10:10:18;;;;;;;8.90;4.10;;;;;;;17.44;86.34;99719.72;5080432;28;20033;-74
2023/04/14 10:12:45;;;;;;;8.05;3.47;;;;;;;17.42;86.90;99718.88;5078156;28;20039;-70
2023/04/14 10:15:11;;;;;;;7.75;3.00;;;;;;;17.37;86.76;99709.31;5080299;28;20157;-72
2023/04/14 10:17:38;;;;;;;6.78;4.07;;;;;;;17.31;87.56;99710.22;5081041;28;20063;-70
2023/04/14 10:20:07;;;;;;;9.27;4.50;;;;;;;17.38;88.27;99717.13;5078967;28;20093;-78
2023/04/14 10:22:33;;;;;;;11.23;4.88;;;;;;;17.44;88.19;99709.28;5089983;28;20032;-76
2023/04/14 10:24:59;;;;;;;8.27;3.70;;;;;;;17.57;87.16;99685.75;5070687;28;20500;-75
2023/04/14 10:27:30;;;;;;;9.45;3.70;;;;;;;17.70;86.11;99700.50;5089402;28;20044;-74
2023/04/14 10:29:57;;;;;;;5.85;3.20;;;;;;;17.67;86.32;99695.28;5076139;28;20032;-76
2023/04/14 10:32:46;;;;;;;8.57;3.67;;;;;;;17.82;85.71;99693.47;5046477;28;20735;-72
2023/04/14 10:35:17;;;;;;;11.47;4.23;;;;;;;17.78;85.69;99688.28;5033193;28;20044;-72
2023/04/14 10:37:50;;;;;;;9.50;4.30;;;;;;;17.87;85.70;99689.97;5050158;28;20040;-74
2023/04/14 10:40:16;;;;;;;12.50;4.47;;;;;;;17.80;85.27;99672.59;5042564;28;20099;-71
2023/04/14 10:42:55;;;;;;;14.30;4.97;;;;;;;17.84;85.88;99676.06;5033169;28;20041;-71
2023/04/14 10:45:21;;;;;;;6.13;2.78;;;;;;;17.75;84.88;99645.66;5049071;28;20040;-73
2023/04/14 10:47:48;;;;;;;13.40;5.50;;;;;;;17.92;85.04;99679.50;5057966;28;20035;-72
2023/04/14 10:50:19;;;;;;;10.75;4.60;;;;;;;18.04;84.99;99694.25;5070078;28;20051;-74
2023/04/14 10:52:54;;;;;;;9.65;4.43;;;;;;;17.98;85.05;99652.50;5070246;28;20033;-71
2023/04/14 10:55:24;;;;;;;9.25;4.18;;;;;;;18.08;84.09;99630.66;5067544;28;20044;-73
2023/04/14 10:57:51;;;;;;;7.82;3.65;;;;;;;18.48;83.62;99655.59;5069572;28;20098;-72
2023/04/14 11:00:19;;;;;;;9.20;3.17;;;;;;;18.77;82.75;99665.81;5068838;28;20048;-71
2023/04/14 11:03:02;;;;;;;9.93;4.10;;;;;;;18.90;81.79;99667.47;5071203;28;20123;-72
2023/04/14 11:05:33;;;;;;;9.32;3.53;;;;;;;18.90;81.46;99656.09;5090323;28;20036;-72
2023/04/14 11:08:14;;;;;;;11.18;4.78;;;;;;;19.06;80.64;99639.38;5089956;28;20059;-72
2023/04/14 11:10:47;;;;;;;9.23;4.50;;;;;;;19.22;80.65;99640.06;5089161;28;20040;-72
2023/04/14 11:13:13;;;;;;;7.68;3.38;;;;;;;19.09;80.26;99612.34;5085465;28;20127;-72
2023/04/14 11:15:44;;;;;;;7.38;3.53;;;;;;;19.24;79.78;99654.00;5072717;28;20032;-73
2023/04/14 11:18:34;;;;;;;9.45;3.72;;;;;;;19.40;80.21;99651.19;5084928;28;20037;-73
2023/04/14 11:21:12;;;;;;;;;;;;;;;19.65;77.69;99645.63;4983317;28;20082;-73
2023/04/14 11:23:37;;;;;;;7.68;3.45;;;;;;;19.57;77.50;99643.13;4971711;28;20024;-73
2023/04/14 11:26:08;;;;;;;10.00;3.60;;;;;;;19.75;76.65;99635.91;4978170;28;20129;-74
2023/04/14 11:28:35;;;;;;;8.35;2.75;;;;;;;19.47;76.16;99608.34;4989911;28;20058;-73
2023/04/14 11:31:04;;;;;;;11.70;3.58;;;;;;;19.36;77.43;99641.66;4976526;28;20050;-76
2023/04/14 11:33:36;;;;;;;9.45;3.55;;;;;;;19.08;77.11;99649.84;4989855;28;20046;-75